Time;durP1;ratioP1;P1;durP2;ratioP2;P2;SDS_P1;SDS_P2;PMS_P1;PMS_P2;Temp;Humidity;BMP_temperature;BMP_pressure;BME280_temperature;BME280_humidity;BME280_pressure;Samples;Min_cycle;Max_cycle;Signal;HPM_P1;HPM_P2
2023/06/05 00:02:16;;;;;;;5.40;2.77;;;11.70;99.90;;;;;;4981194;28;20169;-68
2023/06/05 00:04:43;;;;;;;;;;;11.80;99.90;;;;;;4999257;28;20085;-68
2023/06/05 00:07:10;;;;;;;7.47;3.35;;;11.80;99.90;;;;;;4984047;28;19929;-68
2023/06/05 00:09:36;;;;;;;5.38;3.35;;;11.80;99.90;;;;;;4974945;28;20452;-69
2023/06/05 00:12:02;;;;;;;7.03;3.57;;;11.80;99.90;;;;;;4979829;28;20076;-68
2023/06/05 00:14:27;;;;;;;6.33;3.30;;;11.80;99.90;;;;;;4981824;28;20280;-68
2023/06/05 00:16:56;;;;;;;5.57;2.93;;;11.80;99.90;;;;;;4981279;28;20120;-68
2023/06/05 00:22:07;;;;;;;4.57;2.58;;;11.90;99.90;;;;;;4373981;26;20065;-88
2023/06/05 00:24:32;;;;;;;5.22;2.78;;;12.00;99.90;;;;;;5009896;28;20132;-84
2023/06/05 00:27:01;;;;;;;5.65;3.13;;;12.00;99.90;;;;;;5034466;28;20033;-91
2023/06/05 00:29:32;;;;;;;6.05;3.33;;;12.10;99.90;;;;;;5046951;28;20037;-88
2023/06/05 00:31:58;;;;;;;4.68;2.70;;;12.00;99.90;;;;;;5030965;28;20041;-90
2023/06/05 00:34:27;;;;;;;4.65;2.65;;;12.10;99.90;;;;;;5046631;28;20037;-87
2023/06/05 00:36:57;;;;;;;5.10;2.83;;;12.20;99.90;;;;;;5038281;28;20136;-86
2023/06/05 00:39:26;;;;;;;4.32;2.47;;;12.20;99.90;;;;;;5045123;28;20060;-86
2023/06/05 00:41:51;;;;;;;5.63;2.72;;;12.20;99.90;;;;;;5065307;28;20044;-87
2023/06/05 00:44:20;;;;;;;5.73;3.10;;;12.20;99.90;;;;;;5046395;28;20048;-86
2023/06/05 00:46:51;;;;;;;5.28;2.78;;;12.30;99.90;;;;;;5063041;28;20411;-91
2023/06/05 00:49:20;;;;;;;4.68;2.95;;;12.30;99.90;;;;;;5042790;28;20389;-84
2023/06/05 00:51:49;;;;;;;6.15;3.25;;;12.30;99.90;;;;;;5036753;28;20040;-85
2023/06/05 00:54:14;;;;;;;6.05;3.10;;;12.30;99.90;;;;;;5043575;28;20045;-85
2023/06/05 00:57:07;;;;;;;5.35;3.00;;;12.40;99.90;;;;;;5045485;28;20037;-86
2023/06/05 00:59:37;;;;;;;6.38;3.45;;;12.40;99.90;;;;;;5040343;28;20041;-86
2023/06/05 01:02:06;;;;;;;5.72;3.10;;;12.40;99.90;;;;;;5030442;28;20045;-86
2023/06/05 01:04:42;;;;;;;5.03;2.83;;;12.40;99.90;;;;;;5029887;28;20029;-87
2023/06/05 01:07:32;;;;;;;5.30;3.20;;;12.40;99.90;;;;;;5037419;28;20052;-86
2023/06/05 01:10:03;;;;;;;10.27;3.00;;;12.40;99.90;;;;;;4965654;28;20432;-89
2023/06/05 01:12:41;;;;;;;5.40;3.10;;;12.40;99.90;;;;;;5022340;28;20098;-86
2023/06/05 01:15:28;;;;;;;5.80;2.72;;;12.40;99.90;;;;;;5042930;28;20049;-88
2023/06/05 01:18:18;;;;;;;;;;;12.40;99.90;;;;;;5059185;28;20041;-85
2023/06/05 01:20:43;;;;;;;4.60;2.67;;;12.40;99.90;;;;;;5039598;28;19917;-86
2023/06/05 01:23:09;;;;;;;5.70;3.10;;;12.40;99.90;;;;;;5040733;28;20058;-86
2023/06/05 01:25:36;;;;;;;7.83;2.53;;;12.40;99.90;;;;;;5038066;28;20377;-87
2023/06/05 01:28:22;;;;;;;4.38;2.63;;;12.40;99.90;;;;;;5037340;28;20047;-86
2023/06/05 01:31:16;;;;;;;5.00;2.85;;;12.40;99.90;;;;;;5046669;28;20064;-86
2023/06/05 01:33:50;;;;;;;4.43;2.80;;;12.50;99.90;;;;;;5035327;28;20048;-85
2023/06/05 01:36:20;;;;;;;5.95;2.95;;;12.40;99.90;;;;;;5024883;28;20037;-86
2023/06/05 01:38:48;;;;;;;4.03;2.30;;;12.40;99.90;;;;;;5022521;28;20426;-86
2023/06/05 01:41:15;;;;;;;6.97;2.70;;;12.40;99.90;;;;;;5022332;28;20109;-86
2023/06/05 01:43:42;;;;;;;3.72;2.15;;;12.30;99.90;;;;;;5044222;28;20033;-88
2023/06/05 01:46:08;;;;;;;;;;;12.40;99.90;;;;;;5031561;28;20187;-87
2023/06/05 01:48:35;;;;;;;4.22;2.40;;;12.40;99.90;;;;;;5049044;28;19923;-87
2023/06/05 01:51:01;;;;;;;5.00;2.67;;;12.40;99.90;;;;;;5027070;28;20045;-85
2023/06/05 01:53:28;;;;;;;4.90;2.45;;;12.40;99.90;;;;;;5039378;28;20045;-87
2023/06/05 01:55:59;;;;;;;;;;;12.40;99.90;;;;;;5040186;28;20135;-86
2023/06/05 01:58:26;;;;;;;4.35;2.30;;;12.40;99.90;;;;;;5026254;28;19920;-85
2023/06/05 02:00:56;;;;;;;;;;;12.30;99.90;;;;;;5039935;28;20041;-88
2023/06/05 02:03:22;;;;;;;5.15;2.38;;;12.40;99.90;;;;;;5048482;28;19948;-86
2023/06/05 02:05:52;;;;;;;4.80;2.53;;;12.40;99.90;;;;;;5034139;28;20112;-88
2023/06/05 02:08:19;;;;;;;4.88;2.40;;;12.40;99.90;;;;;;5048969;28;20044;-87
2023/06/05 02:10:54;;;;;;;3.78;2.20;;;12.40;99.90;;;;;;5043508;28;20048;-86
2023/06/05 02:13:22;;;;;;;5.03;2.30;;;12.40;99.90;;;;;;5038016;28;20102;-86
2023/06/05 02:18:25;;;;;;;4.22;2.38;;;12.40;99.90;;;;;;4961706;28;20051;-68
2023/06/05 02:20:57;;;;;;;3.70;2.28;;;12.40;99.90;;;;;;4951420;28;20039;-68
2023/06/05 02:23:23;;;;;;;5.30;2.40;;;12.40;99.90;;;;;;4953021;28;20245;-68
2023/06/05 02:25:48;;;;;;;3.95;2.30;;;12.30;99.90;;;;;;4947266;28;20182;-68
2023/06/05 02:28:15;;;;;;;4.60;2.38;;;12.30;99.90;;;;;;4961521;28;20200;-68
2023/06/05 02:30:44;;;;;;;4.20;1.98;;;12.30;99.90;;;;;;4961916;28;20050;-68
2023/06/05 02:33:10;;;;;;;4.50;2.30;;;12.30;99.90;;;;;;4964622;28;20042;-68
2023/06/05 02:35:36;;;;;;;3.10;1.88;;;12.30;99.90;;;;;;4948057;28;20081;-68
2023/06/05 02:38:04;;;;;;;3.40;2.00;;;12.20;99.90;;;;;;4955728;28;20396;-68
2023/06/05 02:40:30;;;;;;;4.38;2.53;;;12.20;99.90;;;;;;4962766;28;20077;-68
2023/06/05 02:42:58;;;;;;;4.15;2.30;;;12.20;99.90;;;;;;4937244;28;20075;-68
2023/06/05 02:45:24;;;;;;;6.55;2.58;;;12.20;99.90;;;;;;4961059;28;21808;-68
2023/06/05 02:47:49;;;;;;;5.18;3.00;;;12.20;99.90;;;;;;4963074;28;20326;-68
2023/06/05 02:50:15;;;;;;;3.87;2.40;;;12.20;99.90;;;;;;4944947;28;20046;-68
2023/06/05 02:52:40;;;;;;;4.53;2.80;;;12.20;99.90;;;;;;4964160;28;20043;-68
2023/06/05 02:55:07;;;;;;;4.67;2.90;;;12.20;99.90;;;;;;4966678;28;20620;-68
2023/06/05 02:57:41;;;;;;;8.05;3.38;;;12.20;99.90;;;;;;4967420;28;20810;-68
2023/06/05 03:00:18;;;;;;;5.20;2.90;;;12.20;99.90;;;;;;4959756;28;20035;-68
2023/06/05 03:02:50;;;;;;;4.65;2.58;;;12.30;99.90;;;;;;4961135;28;20062;-68
2023/06/05 03:05:24;;;;;;;3.85;2.55;;;12.30;99.90;;;;;;4964440;28;20046;-68
2023/06/05 03:07:52;;;;;;;5.55;2.70;;;12.30;99.90;;;;;;4957973;28;20515;-68
2023/06/05 03:10:22;;;;;;;3.85;2.20;;;12.40;99.90;;;;;;4962024;28;20054;-68
2023/06/05 03:12:47;;;;;;;4.90;2.47;;;12.40;99.90;;;;;;4956105;28;20125;-68
2023/06/05 03:15:14;;;;;;;6.13;2.65;;;12.30;99.90;;;;;;4961682;28;20043;-68
2023/06/05 03:17:41;;;;;;;3.50;2.15;;;12.40;99.90;;;;;;4968921;28;20094;-68
2023/06/05 03:20:09;;;;;;;3.90;2.17;;;12.40;99.90;;;;;;4940163;28;20086;-68
2023/06/05 03:22:38;;;;;;;4.93;1.77;;;12.40;99.90;;;;;;4960900;28;20066;-68
2023/06/05 03:25:04;;;;;;;3.65;2.08;;;12.40;99.90;;;;;;4963011;28;20077;-68
2023/06/05 03:27:30;;;;;;;;;;;12.40;99.90;;;;;;4956146;28;20055;-68
2023/06/05 03:29:58;;;;;;;4.00;1.95;;;12.50;99.90;;;;;;4960818;28;19925;-68
2023/06/05 03:32:24;;;;;;;3.25;1.77;;;12.40;99.90;;;;;;4960015;28;20090;-68
2023/06/05 03:34:50;;;;;;;2.53;1.45;;;12.40;99.90;;;;;;4965533;28;20039;-68
2023/06/05 03:37:16;;;;;;;2.13;1.40;;;12.50;99.90;;;;;;4963039;28;20038;-68
2023/06/05 03:39:42;;;;;;;4.13;1.42;;;12.50;99.90;;;;;;4960673;28;20055;-68
2023/06/05 03:42:09;;;;;;;5.35;1.95;;;12.50;99.90;;;;;;4961186;28;20046;-68
2023/06/05 03:44:35;;;;;;;5.00;2.05;;;12.50;99.90;;;;;;4965009;28;20043;-68
2023/06/05 03:47:05;;;;;;;3.67;2.25;;;12.40;99.90;;;;;;4953902;28;20389;-68
2023/06/05 03:49:30;;;;;;;5.97;2.33;;;12.50;99.90;;;;;;4959705;28;20054;-68
2023/06/05 03:52:03;;;;;;;3.93;2.27;;;12.50;99.90;;;;;;4961846;28;20051;-68
2023/06/05 03:54:32;;;;;;;3.53;1.98;;;12.50;99.90;;;;;;4962069;28;20305;-68
2023/06/05 03:57:00;;;;;;;6.43;2.05;;;12.40;99.90;;;;;;4962316;28;20308;-68
2023/06/05 03:59:27;;;;;;;6.55;1.85;;;12.50;99.90;;;;;;4958463;28;20049;-68
2023/06/05 04:01:54;;;;;;;4.00;1.92;;;12.50;99.90;;;;;;4963942;28;20109;-68
2023/06/05 04:04:22;;;;;;;7.10;2.53;;;12.50;99.90;;;;;;4966369;28;20035;-68
2023/06/05 04:06:48;;;;;;;5.78;3.10;;;12.50;99.90;;;;;;4979432;28;20054;-68
2023/06/05 04:09:14;;;;;;;4.40;2.15;;;12.50;99.90;;;;;;4967997;28;20050;-68
2023/06/05 04:11:43;;;;;;;6.13;2.43;;;12.50;99.90;;;;;;4966919;28;20050;-68
2023/06/05 04:14:10;;;;;;;4.32;1.90;;;12.50;99.90;;;;;;4951901;28;20078;-67
2023/06/05 04:16:42;;;;;;;4.18;2.40;;;12.50;99.90;;;;;;4959537;28;20185;-68
2023/06/05 04:19:12;;;;;;;4.65;2.40;;;12.50;99.90;;;;;;4965110;28;20412;-68
2023/06/05 04:21:38;;;;;;;4.03;1.88;;;12.50;99.90;;;;;;4962288;28;22177;-68
2023/06/05 04:24:07;;;;;;;6.47;2.20;;;12.60;99.90;;;;;;4962893;28;20085;-68
2023/06/05 04:26:37;;;;;;;4.53;1.95;;;12.60;99.90;;;;;;4964642;28;20448;-68
2023/06/05 04:29:18;;;;;;;4.72;2.53;;;12.60;99.90;;;;;;4962302;28;20047;-68
2023/06/05 04:31:47;;;;;;;5.53;1.60;;;12.60;99.90;;;;;;4947368;28;20524;-68
2023/06/05 04:34:13;;;;;;;2.85;1.50;;;12.60;99.90;;;;;;4957764;28;20042;-68
2023/06/05 04:36:40;;;;;;;3.10;1.65;;;12.60;99.90;;;;;;4963894;28;20073;-68
2023/06/05 04:39:10;;;;;;;3.75;2.03;;;12.70;99.90;;;;;;4968102;28;20479;-68
2023/06/05 04:41:37;;;;;;;3.10;1.80;;;12.70;99.90;;;;;;4979030;28;20046;-68
2023/06/05 04:44:02;;;;;;;;;;;12.70;99.90;;;;;;4963729;28;20106;-68
2023/06/05 04:46:28;;;;;;;5.18;2.05;;;12.80;99.90;;;;;;4964098;28;19922;-68
2023/06/05 04:48:57;;;;;;;3.55;2.28;;;12.80;99.90;;;;;;4957163;28;20377;-68
2023/06/05 04:51:23;;;;;;;3.10;1.70;;;12.80;99.90;;;;;;4965417;28;20074;-68
2023/06/05 04:53:52;;;;;;;5.65;2.78;;;12.80;99.90;;;;;;4965470;28;20433;-68
2023/06/05 04:56:20;;;;;;;4.78;2.47;;;12.90;99.90;;;;;;4979590;28;20221;-68
2023/06/05 04:58:47;;;;;;;4.78;2.20;;;12.80;99.90;;;;;;4958607;28;20320;-68
2023/06/05 05:01:13;;;;;;;5.07;2.42;;;12.90;99.90;;;;;;4963810;28;20051;-67
2023/06/05 05:03:42;;;;;;;5.72;2.10;;;12.90;99.90;;;;;;4965636;28;20049;-68
2023/06/05 05:06:09;;;;;;;4.03;2.13;;;13.00;99.90;;;;;;4961658;28;20043;-68
2023/06/05 05:08:36;;;;;;;3.70;1.80;;;13.00;99.90;;;;;;4963034;28;20047;-68
2023/06/05 05:11:01;;;;;;;;;;;13.00;99.90;;;;;;4963093;28;20535;-68
2023/06/05 05:13:27;;;;;;;2.60;1.50;;;13.00;99.90;;;;;;4960141;28;20319;-68
2023/06/05 05:15:54;;;;;;;3.13;1.63;;;13.10;99.90;;;;;;4963715;28;20078;-67
2023/06/05 05:18:19;;;;;;;;;;;13.10;99.90;;;;;;4965162;28;20097;-68
2023/06/05 05:20:45;;;;;;;2.47;1.40;;;13.10;99.90;;;;;;4951065;28;19962;-67
2023/06/05 05:23:11;;;;;;;3.15;1.67;;;13.10;99.90;;;;;;4966193;28;20042;-68
2023/06/05 05:25:40;;;;;;;7.40;1.27;;;13.20;99.90;;;;;;4953839;28;20058;-67
2023/06/05 05:28:06;;;;;;;2.35;1.05;;;13.20;99.90;;;;;;4964556;28;20504;-68
2023/06/05 05:30:32;;;;;;;;;;;13.20;99.90;;;;;;4961440;28;20034;-68
2023/06/05 05:32:58;;;;;;;2.45;1.27;;;13.20;99.90;;;;;;4959656;28;20303;-68
2023/06/05 05:35:24;;;;;;;2.35;1.35;;;13.40;99.90;;;;;;4942026;28;20058;-68
2023/06/05 05:37:52;;;;;;;2.42;1.23;;;13.30;99.90;;;;;;4965920;28;20174;-68
2023/06/05 05:40:17;;;;;;;3.93;1.33;;;13.30;99.90;;;;;;4961505;28;20454;-68
2023/06/05 05:42:43;;;;;;;2.63;1.20;;;13.40;99.90;;;;;;4965258;28;20046;-68
2023/06/05 05:45:09;;;;;;;2.13;1.20;;;13.40;99.90;;;;;;4963445;28;20560;-68
2023/06/05 05:47:34;;;;;;;3.08;0.98;;;13.50;99.90;;;;;;4967363;28;20045;-68
2023/06/05 05:50:00;;;;;;;2.83;1.00;;;13.60;99.90;;;;;;4956008;28;20073;-68
2023/06/05 05:52:28;;;;;;;2.10;1.20;;;13.60;99.90;;;;;;4957853;28;20062;-68
2023/06/05 05:54:54;;;;;;;3.83;1.20;;;13.60;99.90;;;;;;4964204;28;20085;-68
2023/06/05 05:57:20;;;;;;;3.50;1.15;;;13.50;99.90;;;;;;4958378;28;20130;-68
2023/06/05 05:59:45;;;;;;;2.03;1.05;;;13.50;99.90;;;;;;4960323;28;20591;-72
2023/06/05 06:02:12;;;;;;;2.80;1.53;;;13.50;99.90;;;;;;4948302;28;20042;-72
2023/06/05 06:04:38;;;;;;;;;;;13.60;99.90;;;;;;4965243;28;20541;-68
2023/06/05 06:07:05;;;;;;;2.05;1.15;;;13.70;99.90;;;;;;4963462;28;19918;-68
2023/06/05 06:09:31;;;;;;;2.63;1.45;;;13.70;99.90;;;;;;4959687;28;20049;-68
2023/06/05 06:11:57;;;;;;;2.97;1.27;;;13.70;99.90;;;;;;4964120;28;20365;-68
2023/06/05 06:14:25;;;;;;;5.55;1.60;;;13.70;99.90;;;;;;4963655;28;20412;-68
2023/06/05 06:16:51;;;;;;;2.03;0.80;;;13.80;99.90;;;;;;4961007;28;20049;-68
2023/06/05 06:19:17;;;;;;;3.00;1.20;;;13.80;99.90;;;;;;4965063;28;20277;-68
2023/06/05 06:21:43;;;;;;;4.50;1.25;;;13.90;99.90;;;;;;4998839;23;20780;-69
2023/06/05 06:24:09;;;;;;;5.20;1.30;;;13.90;99.90;;;;;;4994984;28;20471;-69
2023/06/05 06:26:38;;;;;;;4.43;1.10;;;14.00;99.90;;;;;;4968536;28;20500;-69
2023/06/05 06:29:03;;;;;;;6.05;1.40;;;14.00;99.90;;;;;;4978761;28;20053;-69
2023/06/05 06:31:29;;;;;;;2.13;1.15;;;14.00;99.90;;;;;;4996155;28;20034;-68
2023/06/05 06:33:55;;;;;;;3.03;1.33;;;14.00;99.90;;;;;;4995963;28;20057;-68
2023/06/05 06:36:21;;;;;;;2.47;1.20;;;14.00;99.90;;;;;;4994623;28;20034;-69
2023/06/05 06:38:49;;;;;;;1.52;0.80;;;14.00;99.90;;;;;;5003233;28;20528;-70
2023/06/05 06:41:14;;;;;;;3.03;1.58;;;13.90;99.90;;;;;;4973933;28;20041;-68
2023/06/05 06:43:40;;;;;;;2.50;1.02;;;14.00;99.90;;;;;;4980355;28;20519;-69
2023/06/05 06:46:06;;;;;;;4.40;1.20;;;13.90;99.90;;;;;;4979467;28;20042;-69
2023/06/05 06:48:35;;;;;;;2.35;1.17;;;13.90;99.90;;;;;;4982141;28;20038;-69
2023/06/05 06:51:02;;;;;;;3.53;1.42;;;13.90;99.90;;;;;;4999898;28;20061;-69
2023/06/05 06:53:28;;;;;;;3.65;1.10;;;13.90;99.90;;;;;;4977936;28;20064;-69
2023/06/05 06:55:53;;;;;;;1.87;1.00;;;14.00;99.90;;;;;;4989970;28;20181;-69
2023/06/05 06:58:19;;;;;;;2.43;1.13;;;14.00;99.90;;;;;;4981897;28;20370;-70
2023/06/05 07:00:44;;;;;;;4.37;1.30;;;14.00;99.90;;;;;;4979148;28;20619;-69
2023/06/05 07:03:10;;;;;;;5.10;1.37;;;14.00;99.90;;;;;;4982104;28;20045;-69
2023/06/05 07:05:36;;;;;;;2.67;1.35;;;13.90;99.90;;;;;;4975300;28;20111;-69
2023/06/05 07:08:01;;;;;;;1.63;1.08;;;14.00;99.90;;;;;;5001068;28;20522;-70
2023/06/05 07:10:30;;;;;;;2.70;1.30;;;14.00;99.90;;;;;;4981860;28;20384;-68
2023/06/05 07:12:55;;;;;;;3.72;1.20;;;14.00;99.90;;;;;;4998514;28;20045;-69
2023/06/05 07:15:21;;;;;;;5.82;1.35;;;14.00;99.90;;;;;;4999673;28;20396;-69
2023/06/05 07:17:47;;;;;;;2.47;1.05;;;14.10;99.90;;;;;;4966260;28;20042;-69
2023/06/05 07:20:13;;;;;;;3.53;1.50;;;14.10;99.90;;;;;;4976308;28;20042;-69
2023/06/05 07:22:44;;;;;;;2.08;1.38;;;14.20;99.90;;;;;;4981440;28;20060;-68
2023/06/05 07:25:12;;;;;;;2.15;1.02;;;14.40;99.90;;;;;;4998850;28;20041;-69
2023/06/05 07:27:40;;;;;;;1.42;0.90;;;14.50;99.90;;;;;;4972659;28;20041;-69
2023/06/05 07:30:06;;;;;;;4.68;1.70;;;14.60;99.90;;;;;;4983803;28;20546;-69
2023/06/05 07:32:32;;;;;;;4.55;1.30;;;14.70;99.90;;;;;;4979216;28;20042;-70
2023/06/05 07:34:57;;;;;;;2.60;1.40;;;14.90;99.90;;;;;;4974444;28;20034;-69
2023/06/05 07:37:23;;;;;;;3.10;1.77;;;15.00;99.90;;;;;;4987529;28;20412;-69
2023/06/05 07:39:51;;;;;;;3.43;1.60;;;15.10;99.90;;;;;;4998030;28;20038;-69
2023/06/05 07:42:16;;;;;;;3.22;1.60;;;15.20;99.90;;;;;;4996338;28;20299;-69
2023/06/05 07:44:42;;;;;;;5.13;1.70;;;15.40;99.90;;;;;;4997769;28;20457;-69
2023/06/05 07:47:08;;;;;;;4.28;1.40;;;15.40;99.90;;;;;;4985443;28;20318;-70
2023/06/05 07:49:33;;;;;;;2.90;1.70;;;15.50;99.90;;;;;;4997732;28;20202;-69
2023/06/05 07:51:59;;;;;;;2.27;1.30;;;15.50;99.90;;;;;;4971914;28;20338;-70
2023/06/05 07:54:25;;;;;;;5.68;1.90;;;15.50;99.90;;;;;;4978743;28;20393;-70
2023/06/05 07:56:51;;;;;;;4.72;1.95;;;15.40;99.90;;;;;;4976510;28;20121;-70
2023/06/05 07:59:22;;;;;;;4.28;1.92;;;15.30;99.90;;;;;;4985067;28;20049;-70
2023/06/05 08:01:49;;;;;;;2.95;1.65;;;15.40;99.90;;;;;;5006257;28;20057;-69
2023/06/05 08:04:15;;;;;;;2.90;1.63;;;15.40;99.90;;;;;;4979218;28;20053;-70
2023/06/05 08:06:41;;;;;;;3.25;1.77;;;15.50;99.90;;;;;;4989560;28;20514;-70
2023/06/05 08:09:09;;;;;;;5.15;2.25;;;15.50;99.90;;;;;;5006821;28;20033;-70
2023/06/05 08:11:37;;;;;;;4.18;1.83;;;15.50;99.90;;;;;;4976456;28;20046;-70
2023/06/05 08:14:03;;;;;;;3.30;1.88;;;15.40;99.90;;;;;;4982434;28;20103;-69
2023/06/05 08:16:29;;;;;;;4.00;2.17;;;15.40;99.90;;;;;;5004504;28;20396;-70
2023/06/05 08:18:55;;;;;;;3.60;1.92;;;15.40;99.90;;;;;;5000292;28;20065;-71
2023/06/05 08:21:21;;;;;;;4.55;2.25;;;15.50;99.90;;;;;;4973999;28;20393;-70
2023/06/05 08:23:47;;;;;;;5.13;2.10;;;15.50;99.90;;;;;;4988251;28;20062;-70
2023/06/05 08:26:12;;;;;;;3.80;2.10;;;15.50;99.90;;;;;;4992263;28;20674;-69
2023/06/05 08:28:40;;;;;;;5.50;2.30;;;15.60;99.90;;;;;;4976954;28;20429;-70
2023/06/05 08:31:06;;;;;;;3.60;1.70;;;15.70;99.90;;;;;;4990047;28;20475;-69
2023/06/05 08:33:35;;;;;;;3.22;1.85;;;15.80;99.90;;;;;;4997136;28;20050;-70
2023/06/05 08:36:02;;;;;;;4.43;1.98;;;15.90;99.90;;;;;;4979138;28;20046;-70
2023/06/05 08:38:29;;;;;;;3.63;2.13;;;15.90;99.90;;;;;;4987923;28;20105;-70
2023/06/05 08:41:05;;;;;;;3.65;1.90;;;15.90;99.90;;;;;;4990379;28;20581;-69
2023/06/05 08:43:31;;;;;;;4.45;2.38;;;15.80;99.90;;;;;;4987172;28;20054;-70
2023/06/05 08:45:57;;;;;;;3.60;1.73;;;15.90;99.90;;;;;;4988247;28;20042;-70
2023/06/05 08:48:25;;;;;;;3.25;1.83;;;16.00;99.90;;;;;;5002044;28;20426;-70
2023/06/05 08:50:51;;;;;;;5.68;1.95;;;16.00;99.90;;;;;;4990404;28;20085;-70
2023/06/05 08:53:19;;;;;;;;;;;16.10;99.90;;;;;;4975044;28;20053;-70
2023/06/05 08:55:47;;;;;;;3.30;1.70;;;16.00;99.90;;;;;;4981376;28;19921;-70
2023/06/05 08:58:13;;;;;;;6.22;1.90;;;16.10;99.90;;;;;;4987465;28;20468;-70
2023/06/05 09:00:40;;;;;;;2.45;1.67;;;16.10;99.90;;;;;;4977202;28;20061;-73
2023/06/05 09:03:08;;;;;;;3.53;1.80;;;16.30;99.90;;;;;;4992335;28;20133;-70
2023/06/05 09:05:34;;;;;;;3.03;1.65;;;16.40;99.90;;;;;;4979113;28;20058;-70
2023/06/05 09:08:00;;;;;;;5.15;1.80;;;16.50;99.90;;;;;;5001641;28;20033;-71
2023/06/05 09:10:27;;;;;;;3.75;2.00;;;16.50;99.90;;;;;;4989498;28;20069;-73
2023/06/05 09:12:54;;;;;;;3.28;1.98;;;16.70;99.90;;;;;;4967180;28;20613;-70
2023/06/05 09:15:30;;;;;;;4.03;1.77;;;16.90;99.90;;;;;;5007744;28;20385;-73
2023/06/05 09:18:04;;;;;;;4.40;2.10;;;17.00;99.90;;;;;;4997164;28;20046;-73
2023/06/05 09:20:34;;;;;;;3.70;1.67;;;17.20;99.90;;;;;;4996625;28;20042;-73
2023/06/05 09:23:04;;;;;;;2.95;1.63;;;17.20;99.90;;;;;;4990708;28;20050;-70
2023/06/05 09:25:50;;;;;;;3.47;2.30;;;17.30;99.90;;;;;;4972052;28;20049;-70
2023/06/05 09:28:16;;;;;;;3.00;1.75;;;17.30;99.90;;;;;;4968149;28;20088;-70
2023/06/05 09:31:01;;;;;;;;;;;17.20;99.90;;;;;;4983812;28;20550;-69
2023/06/05 09:33:32;;;;;;;2.70;1.80;;;17.30;99.90;;;;;;4975677;28;20283;-70
2023/06/05 09:36:07;;;;;;;3.88;1.98;;;17.40;99.90;;;;;;4979891;28;20041;-70
2023/06/05 09:38:33;;;;;;;2.80;1.40;;;17.50;99.90;;;;;;5000154;28;20046;-70
2023/06/05 09:41:10;;;;;;;4.32;1.65;;;17.30;99.90;;;;;;5000881;28;20077;-69
2023/06/05 09:43:37;;;;;;;2.97;1.55;;;17.30;99.90;;;;;;5001172;28;20042;-69
2023/06/05 09:46:06;;;;;;;4.35;1.70;;;17.30;99.90;;;;;;4981491;28;20045;-70
2023/06/05 09:48:32;;;;;;;5.05;1.80;;;17.40;99.90;;;;;;4964985;28;20496;-69
2023/06/05 09:51:08;;;;;;;;;;;17.50;99.90;;;;;;4982483;28;20049;-69
2023/06/05 09:53:34;;;;;;;5.45;1.95;;;17.50;99.90;;;;;;5002006;28;20402;-69
2023/06/05 09:56:00;;;;;;;;;;;17.60;99.90;;;;;;5001174;28;20046;-70
2023/06/05 09:58:26;;;;;;;4.75;1.67;;;17.60;99.90;;;;;;5001766;28;20007;-70
2023/06/05 10:00:52;;;;;;;5.15;1.88;;;17.70;99.90;;;;;;4988503;28;20145;-70
2023/06/05 10:03:20;;;;;;;4.72;1.58;;;17.80;99.90;;;;;;4977151;28;20054;-70
2023/06/05 10:05:46;;;;;;;3.75;1.77;;;17.90;99.90;;;;;;4967902;28;20067;-70
2023/06/05 10:08:15;;;;;;;4.72;2.08;;;17.90;99.90;;;;;;5000520;28;20038;-70
2023/06/05 10:10:42;;;;;;;2.60;1.67;;;17.90;99.90;;;;;;4996784;28;20136;-70
2023/06/05 10:13:10;;;;;;;4.82;1.95;;;18.00;99.90;;;;;;4999154;28;20605;-70
2023/06/05 10:15:38;;;;;;;3.47;1.80;;;18.10;99.90;;;;;;4971478;28;20050;-71
2023/06/05 10:18:05;;;;;;;3.08;1.85;;;18.20;99.90;;;;;;4970676;28;20050;-70
2023/06/05 10:20:32;;;;;;;3.00;1.80;;;18.30;99.90;;;;;;4991109;28;20042;-70
2023/06/05 10:22:58;;;;;;;3.55;2.00;;;18.50;99.90;;;;;;4981271;28;20064;-69
2023/06/05 10:25:24;;;;;;;4.05;1.73;;;18.60;99.90;;;;;;4995071;28;20039;-69
2023/06/05 10:28:02;;;;;;;3.50;1.67;;;18.70;99.90;;;;;;5001352;28;20061;-70
2023/06/05 10:31:04;;;;;;;6.50;1.80;;;18.70;99.90;;;;;;4997506;28;20037;-70
2023/06/05 10:33:55;;;;;;;3.75;1.88;;;18.80;99.90;;;;;;4990427;28;20311;-70
2023/06/05 10:36:49;;;;;;;4.18;1.92;;;18.90;99.90;;;;;;4988112;28;20045;-70
2023/06/05 10:39:15;;;;;;;4.10;1.98;;;18.90;99.90;;;;;;4993115;28;20160;-70
2023/06/05 10:41:41;;;;;;;4.05;2.00;;;18.90;99.90;;;;;;4993808;28;20057;-70
2023/06/05 10:44:07;;;;;;;2.80;1.60;;;18.90;99.90;;;;;;4989285;28;20174;-70
2023/06/05 10:46:35;;;;;;;3.88;1.48;;;19.00;99.90;;;;;;4986171;28;20053;-70
2023/06/05 10:49:19;;;;;;;5.90;1.70;;;19.10;99.90;;;;;;4978208;28;20053;-70
2023/06/05 10:51:53;;;;;;;3.20;1.42;;;19.30;99.90;;;;;;4985952;28;20049;-70
2023/06/05 10:54:21;;;;;;;2.72;1.40;;;19.40;99.90;;;;;;4974664;28;20096;-70
2023/06/05 10:57:02;;;;;;;3.75;1.65;;;19.60;99.90;;;;;;4996188;28;20046;-70
2023/06/05 10:59:32;;;;;;;3.45;1.50;;;19.60;99.90;;;;;;4988894;28;20044;-70
2023/06/05 11:02:16;;;;;;;4.28;1.98;;;19.60;99.90;;;;;;4977373;28;20041;-70
2023/06/05 11:04:51;;;;;;;2.80;1.98;;;19.80;99.90;;;;;;4974668;28;20082;-69
2023/06/05 11:07:24;;;;;;;3.08;1.60;;;19.90;99.90;;;;;;4968683;28;20042;-69
2023/06/05 11:10:02;;;;;;;3.53;1.63;;;20.00;99.90;;;;;;4981583;28;20487;-70
2023/06/05 11:12:43;;;;;;;4.40;1.95;;;19.90;99.90;;;;;;4974685;28;20069;-70
2023/06/05 11:15:13;;;;;;;3.22;1.83;;;19.80;99.90;;;;;;4949235;28;20049;-70
2023/06/05 11:17:40;;;;;;;4.47;1.63;;;19.80;99.90;;;;;;4977623;28;20408;-70
2023/06/05 11:20:26;;;;;;;2.78;1.70;;;20.10;99.90;;;;;;4990585;28;20034;-70
2023/06/05 11:22:52;;;;;;;3.72;1.90;;;20.20;99.90;;;;;;4977380;28;20092;-70
2023/06/05 11:25:18;;;;;;;3.63;1.52;;;20.10;99.90;;;;;;4951864;28;20144;-70
2023/06/05 11:27:50;;;;;;;2.67;1.45;;;20.20;99.90;;;;;;4987663;28;20050;-69
2023/06/05 11:30:21;;;;;;;4.13;1.30;;;20.20;99.90;;;;;;4991200;28;20136;-70
2023/06/05 11:32:47;;;;;;;2.70;1.60;;;20.30;99.90;;;;;;4970667;28;20535;-70
2023/06/05 11:35:14;;;;;;;2.97;1.40;;;20.30;99.90;;;;;;4991085;28;20104;-71
2023/06/05 11:37:40;;;;;;;2.75;1.40;;;20.30;99.90;;;;;;4996305;28;20042;-70
2023/06/05 11:40:10;;;;;;;2.78;1.67;;;20.40;99.90;;;;;;4995002;28;20237;-70
2023/06/05 11:42:38;;;;;;;3.65;1.40;;;20.40;99.90;;;;;;4972093;28;20072;-70
2023/06/05 11:45:11;;;;;;;3.05;1.60;;;20.50;99.90;;;;;;4981184;28;20471;-70
2023/06/05 11:47:37;;;;;;;3.92;1.75;;;20.50;99.90;;;;;;4972524;28;20435;-70
2023/06/05 11:50:26;;;;;;;;;;;20.50;99.90;;;;;;4980805;28;20193;-70
2023/06/05 11:52:51;;;;;;;;;;;20.60;99.90;;;;;;4985483;28;20426;-70
2023/06/05 11:55:21;;;;;;;2.90;1.55;;;20.60;99.90;;;;;;5002756;28;19921;-69
2023/06/05 11:57:48;;;;;;;2.42;1.15;;;20.70;99.90;;;;;;4976706;28;20112;-69
2023/06/05 12:00:16;;;;;;;3.33;1.63;;;20.80;99.90;;;;;;4982356;28;20049;-69
2023/06/05 12:02:42;;;;;;;3.53;1.40;;;20.90;99.90;;;;;;4976510;28;20049;-69
2023/06/05 12:05:11;;;;;;;4.50;2.00;;;21.10;99.90;;;;;;4995803;28;20045;-69
2023/06/05 12:07:39;;;;;;;2.72;1.52;;;21.20;99.90;;;;;;4974566;28;20045;-70
2023/06/05 12:10:08;;;;;;;2.22;1.38;;;21.40;99.90;;;;;;4994990;28;20522;-70
2023/06/05 12:12:35;;;;;;;2.30;1.30;;;21.50;99.90;;;;;;4982948;28;20046;-70
2023/06/05 12:15:14;;;;;;;3.17;1.52;;;21.40;99.90;;;;;;4972485;28;20567;-70
2023/06/05 12:17:48;;;;;;;2.40;1.23;;;21.50;99.90;;;;;;4982228;28;20085;-69
2023/06/05 12:22:43;;;;;;;3.28;1.27;;;21.40;99.90;;;;;;4993376;28;20050;-69
2023/06/05 12:25:22;;;;;;;2.33;1.30;;;21.40;99.90;;;;;;4977931;28;20064;-68
2023/06/05 12:27:52;;;;;;;1.90;1.30;;;21.50;99.90;;;;;;4982743;28;20390;-68
2023/06/05 12:30:20;;;;;;;2.33;1.55;;;21.50;99.90;;;;;;4995834;28;20137;-69
2023/06/05 12:32:48;;;;;;;2.58;1.30;;;21.50;99.90;;;;;;4983388;28;20084;-70
2023/06/05 12:35:21;;;;;;;2.72;1.40;;;21.50;99.90;;;;;;4980808;28;20086;-67
2023/06/05 12:37:48;;;;;;;1.80;1.17;;;21.50;99.90;;;;;;4997846;28;20499;-68
2023/06/05 12:40:17;;;;;;;5.25;1.20;;;21.40;99.90;;;;;;4998325;28;20042;-68
2023/06/05 12:42:43;;;;;;;2.20;1.25;;;21.40;99.90;;;;;;4984607;28;20089;-69
2023/06/05 12:45:09;;;;;;;;;;;21.50;99.90;;;;;;4983062;28;20448;-68
2023/06/05 12:47:36;;;;;;;2.13;1.25;;;21.70;99.90;;;;;;4997214;28;19967;-69
2023/06/05 12:50:03;;;;;;;2.75;1.40;;;21.80;99.90;;;;;;4980362;28;20042;-68
2023/06/05 12:52:31;;;;;;;2.65;1.42;;;22.00;99.90;;;;;;4983811;28;20103;-68
2023/06/05 12:54:57;;;;;;;2.35;0.90;;;22.10;99.90;;;;;;4980480;28;20137;-69
2023/06/05 12:57:23;;;;;;;;;;;22.20;99.90;;;;;;4994128;28;20038;-69
2023/06/05 12:59:51;;;;;;;5.07;1.40;;;22.20;99.50;;;;;;4971478;28;19979;-69
2023/06/05 13:02:17;;;;;;;2.90;1.38;;;22.30;99.80;;;;;;4973303;28;20060;-68
2023/06/05 13:04:43;;;;;;;;;;;22.30;99.70;;;;;;4996543;28;20523;-68
2023/06/05 13:07:11;;;;;;;2.30;1.30;;;22.20;97.80;;;;;;4978279;28;19948;-68
2023/06/05 13:09:36;;;;;;;2.95;1.63;;;22.10;99.10;;;;;;4994508;28;20045;-67